Date,TemperatureHighF,TemperatureAvgF,TemperatureLowF,DewpointHighF,DewpointAvgF,DewpointLowF,HumidityHigh,HumidityAvg,HumidityLow,PressureMaxIn,PressureMinIn,WindSpeedMaxMPH,WindSpeedAvgMPH,GustSpeedMaxMPH,PrecipitationSumIn
2013-1-1,30.0,22.8,6.9,26.7,15.8,1.1,89,74,65,29.93,29.71,25,4,25,0.00
2013-1-2,19.9,11.9,-0.8,15.6,6.6,-6.0,90,79,63,30.19,29.91,22,2,22,0.00
2013-1-3,22.0,6.6,-11.5,17.1,0.3,-15.2,90,77,40,30.20,30.03,11,1,11,0.01
2013-1-4,32.4,27.4,19.8,23.1,21.3,17.1,92,78,66,30.03,29.82,22,3,22,0.01
2013-1-5,33.0,27.1,16.1,25.4,20.5,12.7,88,77,56,30.25,29.83,22,3,22,0.00
2013-1-6,33.3,27.1,16.2,29.3,23.8,13.3,93,87,80,30.20,29.95,8,0,8,0.02
2013-1-7,32.9,24.3,5.4,30.1,19.2,2.1,90,81,67,30.39,29.99,11,1,11,0.00
2013-1-8,39.1,24.0,3.9,24.3,17.0,0.6,95,76,52,30.42,30.31,13,1,13,0.00
2013-1-9,42.4,31.4,12.3,33.0,24.1,9.2,89,75,62,30.41,30.01,23,2,23,0.00
2013-1-10,39.4,32.6,21.0,31.1,23.7,17.8,90,70,53,30.56,30.08,22,3,22,0.00
2013-1-11,34.4,27.6,17.4,33.3,23.6,15.0,96,85,64,30.55,30.20,7,0,7,0.14
2013-1-12,42.8,36.2,33.0,41.1,34.9,32.2,97,95,91,30.20,30.12,3,0,4,0.00
2013-1-13,51.2,39.3,32.8,48.1,38.1,32.0,98,95,85,30.15,29.98,8,0,8,0.00
2013-1-14,49.7,37.6,30.0,49.2,33.6,24.0,98,86,69,30.28,29.88,21,2,21,0.06
2013-1-15,32.5,28.7,22.9,26.0,22.9,20.4,92,79,68,30.34,30.21,9,1,9,0.00
2013-1-16,32.1,29.4,26.8,30.6,26.7,22.8,94,90,79,30.24,29.81,9,0,9,0.36
2013-1-17,33.2,27.4,18.6,27.7,21.2,6.6,93,78,59,30.12,29.82,16,2,18,0.00
2013-1-18,18.6,13.0,7.0,8.6,1.7,-5.8,86,61,47,30.42,30.06,18,2,18,0.00
2013-1-19,41.4,29.1,17.3,27.5,19.9,8.1,87,69,48,30.32,29.82,16,1,16,0.00
2013-1-20,42.9,30.9,18.0,32.0,22.2,8.2,92,70,48,29.94,29.54,33,4,33,0.02
2013-1-21,20.9,16.7,12.8,15.7,9.3,4.2,90,73,55,30.05,29.79,14,1,14,0.01
2013-1-22,16.1,10.8,3.9,13.2,4.5,-3.7,91,75,59,30.08,29.77,17,2,17,0.00
2013-1-23,6.0,1.4,-5.9,1.4,-7.8,-10.8,83,65,51,30.17,30.07,22,3,22,0.00
2013-1-24,11.2,2.4,-7.9,-3.6,-7.6,-12.2,84,63,45,30.32,30.14,22,3,22,0.00
2013-1-25,17.7,8.5,0.3,7.2,-4.7,-9.8,83,56,33,30.38,30.09,15,2,15,0.01
2013-1-26,16.2,8.4,-4.6,6.7,-0.9,-8.4,88,67,44,30.30,30.06,16,1,16,0.00
2013-1-27,22.0,13.8,6.5,5.0,2.5,-0.2,76,61,42,30.50,30.29,13,2,13,0.00
2013-1-28,23.8,16.5,6.4,21.0,12.2,1.5,92,83,68,30.49,30.03,7,0,7,0.18
2013-1-29,34.8,29.1,22.9,31.9,26.6,20.6,95,90,82,30.17,30.03,7,0,7,0.11
2013-1-30,55.4,40.7,33.2,53.7,39.7,31.9,98,96,92,30.10,29.36,18,1,18,0.20
2013-1-31,53.2,34.1,22.1,52.7,29.0,13.6,98,82,63,29.55,28.90,31,4,31,0.91
2013-2-1,22.2,18.9,14.1,14.5,9.7,4.8,80,67,58,30.08,29.55,24,4,24,0.00
2013-2-2,23.4,16.1,7.7,13.5,6.8,2.3,84,67,49,30.22,30.04,15,2,15,0.00
2013-2-3,26.4,19.1,10.7,13.4,11.5,7.6,88,73,52,30.06,29.76,7,1,7,0.00
2013-2-4,20.2,16.7,11.7,14.8,10.3,5.1,88,76,60,29.94,29.75,19,3,19,0.00
2013-2-5,29.1,17.9,7.2,17.9,10.5,4.1,88,73,50,30.02,29.92,3,1,7,0.00
2013-2-6,28.1,22.8,15.1,22.2,14.9,4.5,90,72,50,30.31,29.91,7,3,25,0.00
2013-2-7,26.9,18.2,5.2,8.9,5.9,2.2,88,60,41,30.52,30.31,3,1,8,0.00
2013-2-8,22.6,20.2,16.2,19.7,14.9,6.4,92,81,53,30.45,29.80,4,1,11,0.53
2013-2-9,19.4,14.9,5.4,17.7,8.7,-0.1,93,77,58,30.31,29.80,7,3,17,0.32
2013-2-10,36.8,12.3,-4.6,15.8,4.1,-8.2,87,72,30,30.50,30.30,2,0,3,0.00
2013-2-11,37.8,27.9,10.5,37.0,25.6,7.1,97,91,71,30.36,29.66,5,1,9,0.25
2013-2-12,33.5,31.4,28.3,29.3,27.0,23.3,88,83,78,29.88,29.63,10,5,40,0.00
2013-2-13,32.8,27.9,22.7,24.4,22.5,18.9,87,80,64,29.86,29.74,4,1,7,0.00
2013-2-14,37.9,25.5,10.9,23.7,19.2,7.8,89,78,53,29.98,29.73,4,1,8,0.00
2013-2-15,44.1,31.6,19.1,29.7,24.4,16.7,92,76,51,29.98,29.90,5,1,10,0.00
2013-2-16,32.2,27.0,21.2,26.1,18.8,7.9,86,71,55,29.98,29.80,5,2,11,0.00
2013-2-17,20.9,14.7,7.5,8.3,2.8,-1.1,68,59,49,29.80,29.54,9,4,30,0.00
2013-2-18,22.8,12.5,3.6,6.6,0.9,-3.0,76,60,39,30.20,29.80,7,4,24,0.00
2013-2-19,35.9,26.0,10.3,32.9,19.1,4.4,95,77,46,30.21,29.59,3,0,5,0.14
2013-2-20,34.3,22.5,18.5,33.0,18.0,13.1,95,83,71,29.80,29.59,9,5,27,0.01
2013-2-21,24.5,19.4,14.8,17.6,12.6,7.9,85,75,61,30.34,29.75,9,4,28,0.00
2013-2-22,38.0,27.8,13.5,24.1,19.4,10.6,90,72,51,30.43,30.28,5,1,10,0.00
2013-2-23,32.1,29.9,27.7,30.2,27.1,22.3,94,89,74,30.29,29.91,3,1,5,0.11
2013-2-24,36.8,32.6,29.6,33.9,30.4,27.0,94,92,85,29.91,29.73,3,0,5,0.13
2013-2-25,35.0,28.6,19.4,29.2,24.8,17.2,93,86,78,30.26,29.91,2,0,6,0.00
2013-2-26,37.5,30.9,23.3,29.7,26.3,20.8,91,83,72,30.33,30.14,3,1,7,0.00
2013-2-27,34.4,31.9,29.6,33.4,30.4,26.3,96,94,84,30.14,29.63,2,1,9,1.15
2013-2-28,40.4,33.6,30.0,36.5,31.7,28.4,96,93,86,29.63,29.53,1,0,2,0.01
2013-3-1,37.5,33.1,29.1,32.5,28.0,23.4,96,82,66,29.73,29.56,4,1,8,0.00
2013-3-2,34.6,29.6,25.2,26.5,24.2,20.5,86,80,71,29.72,29.65,3,2,8,0.00
2013-3-3,31.3,25.7,21.6,24.1,21.1,18.2,88,83,74,29.69,29.61,4,2,9,0.00
2013-3-4,30.0,24.2,20.3,22.4,19.4,16.5,87,82,71,29.86,29.66,7,3,17,0.00
2013-3-5,39.5,30.5,24.1,29.1,24.1,18.6,91,77,64,30.09,29.86,5,1,8,0.00
2013-3-6,33.0,31.4,28.7,30.4,28.2,24.9,94,88,80,30.14,30.05,6,2,11,0.05
2013-3-7,33.4,29.7,27.1,30.1,26.3,23.4,93,87,77,30.13,30.06,3,1,10,0.06
2013-3-8,38.6,31.4,25.4,31.6,26.4,21.5,94,82,62,30.25,30.02,3,1,7,0.13
2013-3-9,52.7,34.2,17.7,28.4,18.8,10.8,93,62,19,30.36,30.20,3,1,6,0.00
2013-3-10,52.0,33.8,15.8,31.6,23.6,13.0,91,70,36,30.41,30.23,3,1,7,0.00
2013-3-11,48.8,40.3,33.2,37.6,30.8,23.4,91,71,39,30.27,30.05,3,1,8,0.00
2013-3-12,47.4,42.6,35.7,46.3,41.2,33.3,97,95,88,30.06,29.68,5,2,11,0.84
2013-3-13,39.5,34.7,30.1,33.1,26.6,19.9,91,73,51,29.80,29.63,5,2,12,0.00
2013-3-14,30.1,21.8,17.9,24.7,14.8,8.1,85,74,62,29.87,29.75,6,3,16,0.00
2013-3-15,31.5,24.6,16.5,26.6,15.4,5.5,87,68,47,29.89,29.65,6,3,13,0.00
2013-3-16,32.4,25.6,19.9,21.8,14.0,7.7,83,62,37,29.89,29.73,4,2,8,0.00
2013-3-17,29.5,23.3,15.2,17.9,10.4,3.1,82,60,37,30.32,29.89,6,2,12,0.00
2013-3-18,33.5,21.1,4.7,22.2,6.4,1.0,90,58,27,30.47,30.19,4,1,12,0.07
2013-3-19,31.0,27.7,24.0,29.3,25.7,21.6,94,92,90,30.19,29.71,4,0,5,0.87
2013-3-20,29.8,23.8,17.5,23.6,19.6,14.6,93,84,71,29.82,29.70,5,2,21,0.01
2013-3-21,33.4,23.7,10.0,19.2,14.8,7.1,92,71,42,29.82,29.54,4,2,9,0.00
2013-3-22,31.1,21.8,12.9,23.6,17.2,10.1,90,83,66,29.79,29.66,5,2,14,0.00
2013-3-23,34.9,29.0,24.1,22.7,20.5,18.4,90,71,53,29.84,29.65,7,3,22,0.00
2013-3-24,38.4,31.8,26.7,24.7,22.8,20.6,81,70,56,29.88,29.62,4,2,9,0.00
2013-3-25,37.7,31.9,23.5,27.6,24.5,20.2,88,74,62,29.79,29.53,4,1,7,0.00
2013-3-26,40.1,33.5,24.2,29.6,25.0,19.5,89,72,45,29.84,29.59,4,1,11,0.00
2013-3-27,44.9,32.8,18.7,34.2,25.5,16.5,92,76,48,29.92,29.71,6,2,7,0.00
2013-3-28,43.8,38.2,31.3,32.7,30.9,29.0,91,75,57,30.06,29.91,3,1,5,0.00
2013-3-29,44.9,37.9,31.2,33.4,31.6,28.9,93,78,58,30.09,30.03,4,2,8,0.00
2013-3-30,48.8,37.6,27.0,30.9,25.2,18.9,92,65,32,30.12,29.91,5,1,12,0.00
2013-3-31,51.2,37.1,22.4,36.5,26.6,19.9,94,70,35,30.13,29.73,5,1,10,0.21
2013-4-1,49.6,36.2,26.1,41.8,30.0,12.7,96,79,46,29.81,29.52,8,3,16,0.17
2013-4-2,29.1,25.5,21.9,19.3,15.5,13.1,80,66,52,29.94,29.72,9,5,20,0.00
2013-4-3,34.7,27.6,21.6,19.4,15.7,11.9,80,62,40,30.20,29.86,8,5,19,0.00
2013-4-4,49.1,34.7,23.1,26.8,19.2,13.4,81,56,29,30.32,29.96,5,2,10,0.00
2013-4-5,48.8,39.0,31.2,27.1,23.8,17.9,80,56,35,30.00,29.60,6,2,11,0.00
2013-4-6,40.3,30.5,23.3,22.0,12.7,6.9,73,49,25,30.33,29.91,5,2,10,0.00
2013-4-7,52.4,36.0,23.0,40.3,26.3,18.4,93,71,35,30.31,29.88,6,1,15,0.02
2013-4-8,62.0,44.6,31.8,38.8,34.0,30.0,95,69,34,30.09,29.91,5,1,12,0.00
2013-4-9,54.4,45.1,36.9,48.4,40.1,33.7,97,83,65,30.04,29.87,7,2,15,0.19
2013-4-10,56.6,46.2,38.7,49.1,43.2,37.0,97,90,70,30.00,29.84,3,0,5,0.92
2013-4-11,44.7,39.4,33.3,43.4,35.7,29.1,96,87,68,30.14,29.85,3,0,5,0.06
2013-4-12,33.9,32.0,30.1,31.6,30.4,28.6,96,94,85,30.14,29.84,3,0,7,0.67
2013-4-13,44.4,37.4,31.7,37.1,34.2,30.2,95,88,72,29.95,29.82,4,0,6,0.02
2013-4-14,40.6,36.5,30.9,34.8,30.6,26.0,96,80,61,30.25,29.93,5,2,10,0.02
2013-4-15,55.9,40.1,25.9,36.2,30.3,23.9,93,71,43,30.38,30.15,4,1,6,0.00
2013-4-16,59.9,47.5,33.7,52.6,42.3,31.2,94,83,59,30.36,30.04,6,2,15,0.24
2013-4-17,57.4,46.9,34.0,46.6,36.1,30.2,94,69,37,30.36,30.06,6,2,21,0.02
2013-4-18,58.3,44.0,29.5,44.6,32.9,27.2,92,68,40,30.42,30.10,6,2,14,0.00
2013-4-19,66.5,56.5,46.9,59.8,53.0,44.7,95,88,72,30.10,29.55,6,2,15,0.53
2013-4-20,46.9,40.9,32.0,45.1,31.7,22.0,94,71,50,30.26,29.61,6,3,14,0.07
2013-4-21,47.0,35.5,27.2,23.3,19.4,11.4,78,54,25,30.69,30.27,4,2,9,0.00
2013-4-22,51.4,33.9,24.8,27.6,22.9,19.7,88,68,32,30.75,30.60,5,1,10,0.00
2013-4-23,39.6,36.7,32.0,36.5,32.8,26.8,93,86,81,30.49,30.18,3,1,12,0.00
2013-4-24,72.6,55.0,34.0,51.1,41.2,32.2,95,65,31,30.18,29.67,4,1,11,0.00
2013-4-25,58.4,43.4,32.5,51.5,33.2,28.3,91,69,41,30.29,29.72,7,3,13,0.08
2013-4-26,55.6,40.7,28.9,34.9,29.7,26.1,90,68,35,30.44,30.26,4,1,9,0.00
2013-4-27,62.4,47.0,29.3,38.0,31.2,24.3,90,59,27,30.44,30.26,3,1,6,0.00
2013-4-28,68.3,52.0,31.8,40.3,35.4,28.9,90,58,32,30.33,30.07,4,1,10,0.00
2013-4-29,62.2,51.8,42.6,43.1,38.3,31.6,80,61,43,30.23,30.15,4,1,8,0.00
2013-4-30,69.2,56.0,44.2,41.3,37.4,31.6,77,53,29,30.31,30.13,4,1,9,0.00
2013-5-1,72.6,53.8,34.3,40.4,34.0,24.4,90,55,17,30.45,30.25,4,1,8,0.00
2013-5-2,77.3,57.2,35.9,47.4,38.0,28.6,91,55,25,30.45,30.26,4,1,10,0.00
2013-5-3,66.2,52.6,37.3,44.7,37.2,26.7,85,58,37,30.48,30.23,4,1,9,0.00
2013-5-4,70.3,54.4,35.5,45.6,38.1,30.8,93,60,24,30.38,30.12,4,1,8,0.00
2013-5-5,70.3,52.5,33.3,39.4,32.6,22.4,88,53,17,30.29,30.09,3,1,6,0.00
2013-5-6,73.6,54.2,32.4,40.6,34.2,27.9,91,55,19,30.24,30.01,4,1,8,0.00
2013-5-7,77.2,58.3,36.8,51.3,42.0,34.3,92,61,22,30.17,29.94,4,1,7,0.00
2013-5-8,66.8,57.1,45.5,59.0,53.2,42.8,96,87,70,30.16,30.01,4,1,12,0.70
2013-5-9,65.5,57.7,52.1,57.0,54.1,50.7,96,88,67,30.01,29.83,3,0,5,0.15
2013-5-10,72.1,61.5,47.8,58.3,52.8,46.7,97,76,46,29.95,29.85,3,1,5,0.00
2013-5-11,63.0,59.2,54.8,61.2,57.0,53.1,96,92,85,29.84,29.64,2,1,8,0.21
2013-5-12,54.6,51.2,45.0,53.0,48.6,31.5,96,91,59,29.78,29.61,3,1,9,0.00
2013-5-13,44.6,39.9,36.0,33.1,29.2,26.1,85,66,54,30.07,29.83,5,3,17,0.00
2013-5-14,50.5,42.0,31.6,34.5,29.9,26.6,88,64,45,30.09,29.94,5,2,11,0.00
2013-5-15,58.2,43.4,27.8,50.6,37.3,25.2,93,81,41,30.09,29.68,6,1,11,0.06
2013-5-16,71.5,59.2,41.4,47.4,40.2,31.3,95,55,27,29.81,29.54,8,3,16,0.00
2013-5-17,63.9,52.8,42.3,42.8,39.5,34.4,90,63,34,30.23,29.81,4,1,7,0.00
2013-5-18,70.3,54.7,36.8,48.2,40.6,34.2,92,63,34,30.30,30.12,4,1,7,0.00
2013-5-19,59.8,51.8,40.8,53.1,48.6,38.6,97,89,75,30.31,30.17,3,1,7,0.06
2013-5-20,73.9,61.8,52.7,63.8,57.8,51.6,97,87,69,30.17,29.91,4,1,11,0.00
2013-5-21,84.4,67.1,52.3,66.9,59.2,50.9,97,79,48,29.97,29.73,5,1,14,0.58
2013-5-22,75.8,62.7,52.0,68.9,60.4,50.9,98,93,75,29.92,29.77,4,1,6,1.49
2013-5-23,72.9,66.6,63.1,66.0,63.8,61.8,97,91,76,29.81,29.70,3,1,8,0.11
2013-5-24,63.4,53.2,42.4,62.3,51.2,40.7,98,93,83,29.89,29.60,3,1,9,0.73
2013-5-25,44.9,41.4,37.9,41.9,39.3,36.3,96,93,86,29.90,29.81,3,1,7,0.28
2013-5-26,48.1,42.0,36.3,42.8,39.1,34.7,95,90,78,30.12,29.80,4,2,11,0.07
2013-5-27,65.2,50.3,34.5,46.1,39.1,33.2,97,70,40,30.19,30.05,5,1,7,0.00
2013-5-28,69.2,54.7,35.6,52.5,42.4,33.5,94,67,37,30.25,30.11,3,1,6,0.00
2013-5-29,71.8,61.0,55.1,66.0,58.6,52.2,97,92,81,30.13,29.94,3,0,9,1.15
2013-5-30,81.0,68.0,56.0,67.1,62.5,54.9,98,84,60,30.08,29.97,4,1,11,0.00
2013-5-31,87.8,71.8,56.7,68.5,61.8,55.0,96,74,41,30.10,29.88,3,1,9,0.00
2013-6-1,86.8,74.3,57.7,69.2,63.5,56.1,95,72,45,29.94,29.77,3,1,8,0.00
2013-6-2,84.7,71.9,64.1,69.1,65.9,62.3,96,83,56,29.81,29.64,5,1,16,0.13
2013-6-3,65.5,61.1,50.1,62.6,54.8,40.7,97,81,58,29.86,29.73,5,2,11,0.00
2013-6-4,66.9,54.3,43.8,49.6,43.7,39.8,89,69,45,30.11,29.85,4,2,12,0.00
2013-6-5,68.8,56.7,43.2,49.5,43.7,37.3,93,66,34,30.19,30.06,4,1,11,0.00
2013-6-6,67.5,57.4,46.2,53.8,48.3,43.5,94,74,48,30.18,30.05,5,1,13,0.16
2013-6-7,53.0,51.2,49.8,51.3,49.8,48.0,96,95,93,30.06,29.84,2,0,7,1.24
2013-6-8,62.7,57.1,49.6,59.0,54.6,48.5,97,91,82,30.02,29.71,5,1,12,0.26
2013-6-9,70.5,61.9,51.6,59.3,55.1,49.9,96,79,60,30.18,30.02,5,2,13,0.00
2013-6-10,67.5,57.5,48.2,59.0,54.3,46.1,96,89,62,30.20,29.95,3,0,10,0.76
2013-6-11,58.9,56.9,54.8,58.0,55.5,53.4,97,95,91,29.95,29.55,4,1,15,1.11
2013-6-12,65.8,56.6,49.8,55.0,52.7,47.6,98,88,64,29.84,29.58,3,2,12,0.03
2013-6-13,56.2,51.5,46.6,54.5,49.9,45.2,96,94,91,29.83,29.70,2,0,8,0.99
2013-6-14,70.4,58.5,49.6,59.0,52.2,48.5,97,81,54,29.84,29.68,2,0,4,0.04
2013-6-15,70.3,59.0,44.2,54.2,48.1,42.5,96,70,43,29.95,29.83,4,1,8,0.00
2013-6-16,69.0,59.1,48.0,60.2,54.1,46.1,96,84,60,29.95,29.70,5,1,8,0.04
2013-6-17,75.1,64.0,57.0,65.2,59.5,55.2,96,86,58,29.89,29.77,4,1,9,0.13
2013-6-18,67.3,58.6,49.7,63.3,55.9,47.5,97,91,80,29.94,29.87,2,0,5,0.02
2013-6-19,68.1,56.7,42.5,50.4,45.4,40.8,96,70,40,30.05,29.93,3,1,6,0.00
2013-6-20,43.6,42.8,42.3,40.9,40.5,40.4,93,92,90,30.27,30.21,0,0,1,0.00
2013-6-23,79.7,79.7,79.7,69.0,69.0,69.0,70,70,70,30.04,30.04,2,2,10,0.00
2013-6-24,85.2,74.2,65.0,72.3,67.4,62.2,96,81,60,29.96,29.85,5,2,13,0.13
2013-6-25,84.7,71.6,61.8,71.2,66.2,60.6,97,85,55,29.92,29.71,4,1,11,0.45
2013-6-26,75.0,68.4,63.7,68.5,66.0,62.5,97,92,76,29.80,29.70,3,1,9,0.02
2013-6-27,79.0,70.0,61.1,69.7,65.6,60.0,97,87,69,29.81,29.64,4,1,12,0.07
2013-6-28,75.8,67.1,61.6,69.4,64.6,60.7,98,92,71,29.64,29.39,3,0,10,1.61
2013-6-29,80.0,70.2,64.0,66.6,63.9,60.9,97,82,55,29.66,29.44,4,1,15,0.02
2013-6-30,81.3,70.0,60.4,70.9,65.0,59.0,97,85,62,29.89,29.66,3,0,9,0.11
2013-7-1,75.1,69.2,65.0,70.6,67.5,63.8,97,94,84,30.01,29.89,2,0,7,0.09
2013-7-2,80.5,72.8,68.5,72.4,70.1,67.4,97,92,74,30.10,30.00,3,1,9,0.44
2013-7-3,81.6,73.9,69.7,73.1,70.0,68.2,97,88,72,30.15,30.05,3,1,6,0.00
2013-7-4,86.3,76.9,65.9,73.1,70.1,64.7,96,81,58,30.17,30.01,3,1,7,0.00
2013-7-5,87.5,77.6,68.5,74.9,71.0,66.7,96,81,61,30.12,29.98,3,1,6,0.00
2013-7-6,68.0,67.7,67.2,67.0,66.6,66.0,97,96,96,30.05,30.04,0,0,2,0.00
2013-7-7,84.7,73.0,63.2,75.0,68.4,61.8,96,87,64,30.02,29.87,2,0,9,0.01
2013-7-8,79.0,71.6,68.6,70.6,68.5,66.7,96,90,70,30.00,29.87,3,0,6,0.00
2013-7-9,78.9,72.3,68.9,71.2,69.1,67.5,96,90,76,30.03,29.95,3,0,6,0.00
2013-7-10,79.3,71.9,68.7,73.2,69.7,67.6,97,93,78,29.98,29.73,3,1,8,0.50
2013-7-11,78.3,71.0,61.4,70.4,66.1,59.1,97,85,60,29.94,29.71,5,1,8,0.00
2013-7-12,73.7,64.6,57.9,61.6,58.8,56.2,95,82,66,30.09,29.93,2,1,9,0.00
2013-7-13,70.5,65.8,60.4,68.2,62.3,56.9,96,89,68,30.29,30.18,1,0,5,0.03
2013-7-14,84.1,74.8,67.2,73.1,69.1,65.7,96,83,60,30.29,30.14,3,1,7,0.00
2013-7-15,86.2,75.1,63.4,71.9,67.6,61.9,96,79,55,30.19,30.03,3,1,7,0.00
2013-7-16,86.5,75.2,62.4,71.6,65.7,60.7,95,75,50,30.17,30.03,3,1,9,0.00
2013-7-17,86.9,76.0,61.8,71.7,67.6,60.1,94,77,54,30.18,29.93,4,1,7,0.00
2013-7-18,87.0,78.9,71.2,74.2,71.3,69.1,95,79,58,30.00,29.82,3,1,9,0.00
2013-7-19,89.0,78.5,67.2,76.0,71.0,65.7,97,79,60,29.91,29.61,5,1,12,0.14
2013-7-20,80.4,71.4,65.2,70.1,67.1,63.7,97,87,70,29.73,29.64,4,1,8,0.00
2013-7-23,67.8,65.9,65.1,66.3,64.9,64.2,97,96,95,29.67,29.57,0,0,4,1.65
2013-7-24,72.1,65.5,54.5,65.7,59.7,49.1,98,82,64,29.96,29.57,4,1,16,0.00
2013-7-25,69.2,59.6,47.0,59.5,52.8,44.8,93,79,65,30.08,29.96,2,0,8,0.00
2013-7-26,70.2,63.2,54.6,60.4,57.6,52.6,94,82,66,30.06,29.93,3,0,9,0.00
2013-7-27,78.9,64.7,48.5,65.7,56.8,46.7,94,78,50,30.05,29.92,2,0,9,0.00
2013-7-28,75.1,66.4,58.8,68.7,63.2,57.1,97,90,71,29.97,29.91,2,0,10,0.07
2013-7-29,76.8,68.9,58.0,66.2,62.7,55.4,97,82,61,30.06,29.85,3,1,13,0.03
2013-7-30,72.4,59.7,52.5,60.2,54.8,51.1,95,85,57,30.10,30.05,4,1,8,0.00
2013-7-31,76.5,67.5,52.4,64.1,58.5,50.4,94,74,54,30.14,29.98,2,0,5,0.00
2013-8-1,71.9,60.9,51.0,65.0,58.0,48.9,96,90,76,30.04,29.83,4,1,10,0.22
2013-8-2,75.1,67.4,58.9,63.1,59.8,55.9,97,78,54,29.84,29.70,4,1,8,0.00
2013-8-3,74.8,62.9,54.7,60.2,56.2,52.1,96,80,53,29.84,29.70,5,1,10,0.00
2013-8-4,70.9,60.5,52.0,59.1,54.5,50.0,96,82,57,29.91,29.77,5,1,8,0.09
2013-8-5,70.1,58.7,49.3,53.4,48.6,43.6,96,72,43,30.06,29.88,5,1,12,0.00
2013-8-6,74.0,59.0,42.5,60.7,50.3,40.1,93,75,49,30.13,30.00,3,1,5,0.00
2013-8-7,73.2,63.8,53.1,61.7,56.9,50.9,94,80,57,30.15,30.04,4,1,10,0.00
2013-8-8,78.7,70.2,63.5,70.2,66.4,61.7,97,88,73,30.04,29.93,3,1,9,0.05
2013-8-9,73.3,69.9,66.6,72.2,68.6,65.4,98,96,90,29.95,29.71,3,1,9,2.54
2013-8-10,68.3,64.1,61.1,66.8,61.5,58.9,95,91,86,29.88,29.77,4,2,10,0.00
2013-8-11,71.2,64.6,52.7,58.8,54.6,49.8,93,72,54,30.09,29.90,3,1,11,0.00
2013-8-12,74.6,63.8,52.8,61.8,56.5,50.4,96,79,55,30.04,29.84,4,1,11,0.00
2013-8-13,69.9,63.2,58.4,66.0,61.3,56.5,97,93,86,29.91,29.61,2,0,6,1.42
2013-8-14,64.5,57.2,51.8,60.6,52.8,49.7,96,86,71,29.98,29.69,6,2,16,0.00
2013-8-15,67.7,55.8,44.3,56.0,50.1,42.7,96,82,58,30.11,29.94,4,1,14,0.00
2013-8-16,71.8,58.7,46.0,57.0,51.2,44.1,94,78,50,30.20,30.03,4,1,8,0.00
2013-8-17,75.6,60.6,45.5,63.6,54.1,43.6,94,81,56,30.29,30.15,3,0,7,0.00
2013-8-18,73.0,61.2,50.4,64.7,56.5,48.7,94,86,57,30.28,30.09,1,0,3,0.00
2013-8-19,74.5,61.8,52.8,61.5,56.3,51.6,96,84,60,30.09,29.97,4,1,6,0.00
2013-8-20,77.2,69.0,58.7,63.8,61.2,57.4,96,78,56,30.11,29.95,3,1,5,0.00
2013-8-21,79.4,66.1,52.9,65.5,59.9,52.1,97,82,51,30.16,29.94,4,1,6,0.00
2013-8-22,81.3,68.2,53.6,67.3,61.9,52.8,97,82,53,30.04,29.75,3,1,6,0.12
2013-8-23,72.0,62.2,47.3,63.3,55.9,45.9,98,82,51,30.14,29.83,3,0,7,0.01
2013-8-24,76.1,58.1,41.2,59.1,49.5,40.3,97,77,37,30.35,30.14,2,0,4,0.00
2013-8-25,74.8,59.5,41.4,61.1,52.1,40.3,97,79,43,30.40,30.12,3,1,7,0.01
2013-8-26,72.9,65.7,59.2,66.6,62.6,57.8,98,90,79,30.17,29.85,4,1,11,0.22
2013-8-27,79.7,68.5,61.1,71.0,65.6,60.5,99,91,69,29.89,29.75,3,0,5,0.01
2013-8-28,81.3,68.7,58.1,71.2,64.6,57.5,99,88,59,29.95,29.75,3,0,6,0.07
2013-8-29,70.4,64.0,59.2,66.0,61.9,58.6,99,93,81,30.03,29.93,3,0,3,0.20
2013-8-30,79.1,69.7,61.2,68.4,64.5,60.3,98,85,59,30.01,29.72,4,1,9,0.01
2013-8-31,77.2,69.1,64.6,73.1,67.8,63.9,99,96,86,29.79,29.72,3,0,7,0.46
2013-9-1,77.6,68.6,62.8,73.3,67.2,62.5,99,96,82,29.83,29.77,3,0,13,4.57
2013-9-2,76.2,68.3,63.7,71.0,66.9,62.8,99,96,81,29.81,29.59,3,0,5,1.37
2013-9-3,69.0,63.8,59.8,63.2,60.0,56.0,98,88,71,29.82,29.62,5,2,10,0.02
2013-9-4,70.8,62.4,52.6,57.9,55.9,51.2,95,80,59,29.91,29.75,5,2,14,0.00
2013-9-5,63.9,59.0,51.9,59.1,51.5,40.3,98,79,43,29.99,29.85,4,1,6,0.01
2013-9-6,63.2,53.6,36.6,47.2,43.2,35.8,98,70,46,30.26,30.03,3,1,7,0.01
2013-9-7,70.6,59.7,51.4,57.0,50.3,45.0,89,72,46,30.10,29.84,4,1,8,0.00
2013-9-8,64.8,56.7,41.1,57.6,50.3,39.8,97,81,53,30.11,29.76,4,1,9,0.00
2013-9-9,66.5,49.9,34.7,52.9,43.1,33.8,98,81,44,30.25,30.05,3,1,7,0.01
2013-9-10,76.4,62.8,49.2,70.3,61.0,48.0,99,94,80,30.13,29.94,3,0,4,0.23
2013-9-11,89.7,76.3,64.2,75.9,70.6,63.6,99,84,57,30.04,29.83,6,1,8,0.49
2013-9-12,77.2,66.6,63.0,73.3,65.7,62.4,99,97,86,29.91,29.64,5,0,9,1.26
2013-9-13,66.6,60.3,51.8,63.3,58.6,49.0,99,94,84,29.79,29.59,2,0,6,0.12
2013-9-14,58.6,52.5,47.7,51.2,48.8,46.1,96,87,75,30.07,29.79,4,1,8,0.00
2013-9-15,62.8,51.8,38.1,54.6,47.3,37.3,98,86,62,30.17,30.00,5,1,7,0.00
2013-9-16,61.1,51.4,40.2,52.9,47.3,35.8,98,86,65,30.27,29.97,3,1,8,0.02
2013-9-17,62.7,46.4,33.5,47.1,39.2,32.5,97,78,45,30.46,30.21,4,1,7,0.00
2013-9-18,68.8,49.7,33.7,51.6,42.4,32.9,98,80,42,30.36,30.03,4,1,7,0.00
2013-9-19,76.3,54.5,37.3,59.1,46.8,36.5,98,80,40,30.17,29.93,2,0,4,0.01
2013-9-20,75.3,55.6,38.9,60.0,49.2,38.1,98,82,45,30.11,29.89,3,0,5,0.00
2013-9-21,68.9,58.3,44.2,62.0,55.0,43.7,99,90,65,30.00,29.63,5,2,15,0.17
2013-9-22,63.2,54.5,46.3,62.0,50.1,42.0,97,85,67,29.86,29.58,5,2,12,0.60
2013-9-23,55.6,47.6,42.7,44.6,41.1,38.0,91,79,63,30.03,29.86,5,2,9,0.00
2013-9-24,63.4,49.1,40.9,45.6,40.3,37.2,96,74,41,30.03,29.79,6,1,10,0.00
2013-9-25,68.6,51.8,37.0,53.2,45.7,36.2,98,82,55,29.99,29.82,3,0,4,0.00
2013-9-26,63.5,51.9,42.2,50.1,46.4,41.1,97,83,57,30.15,29.90,3,0,5,0.00
2013-9-27,57.1,49.0,40.3,52.8,46.2,39.3,97,91,78,30.32,30.15,1,0,4,0.00
2013-9-28,71.0,49.6,34.7,54.9,43.5,33.9,98,83,49,30.39,30.28,2,0,7,0.01
2013-9-29,40.6,40.4,40.4,39.9,39.9,39.9,98,98,98,30.24,30.24,0,0,0,0.00
2013-9-30,71.0,54.4,35.9,56.5,48.0,35.1,98,81,54,30.13,29.93,2,0,4,0.01
2013-10-1,73.2,54.4,37.0,58.0,49.0,36.2,98,84,56,30.02,29.81,4,1,7,0.01
2013-10-2,69.7,60.1,47.9,61.2,55.5,47.1,98,85,72,29.98,29.79,6,2,13,0.01
2013-10-3,71.6,56.5,42.0,52.5,47.0,40.6,98,75,33,30.10,29.98,3,0,5,0.00
2013-10-4,58.9,53.3,47.8,56.6,52.2,46.4,98,96,90,30.09,30.03,1,0,2,0.80
2013-10-5,61.1,57.1,54.4,58.9,55.8,53.8,98,95,84,30.11,30.05,1,0,1,0.07
2013-10-6,56.6,52.6,49.9,56.1,52.2,49.4,99,98,97,30.17,30.09,2,0,5,0.75
2013-10-7,67.3,55.6,50.6,65.1,54.7,48.3,99,97,90,30.11,29.69,6,2,17,0.74
2013-10-8,59.6,49.1,35.9,48.1,41.3,34.9,98,77,45,30.41,29.92,5,1,13,0.00
2013-10-9,61.3,42.4,31.2,45.6,36.8,30.4,98,84,45,30.52,30.36,2,0,5,0.01
2013-10-10,60.0,42.5,32.2,44.6,36.0,31.4,98,82,39,30.41,30.27,1,0,4,0.00
2013-10-11,69.2,50.6,40.1,48.4,41.0,29.0,97,76,25,30.22,30.10,3,0,6,0.00
2013-10-12,59.9,47.2,34.7,52.5,44.9,33.9,98,92,75,30.40,30.19,4,1,9,0.00
2013-10-13,61.2,51.8,43.1,50.1,47.0,42.0,98,85,63,30.44,30.32,3,1,6,0.01
2013-10-14,68.6,55.2,44.0,53.4,48.6,42.6,95,80,53,30.37,30.20,2,0,5,0.00
2013-10-15,60.9,56.0,48.7,55.8,53.1,47.6,96,90,79,30.24,30.14,2,0,5,0.00
2013-10-16,59.0,51.4,46.3,52.1,48.4,45.5,98,90,72,30.14,29.88,2,0,4,0.00
2013-10-17,64.9,55.4,49.6,53.7,50.2,47.0,97,84,54,29.88,29.65,4,1,8,0.05
2013-10-18,57.0,52.4,46.2,56.3,45.9,37.5,99,80,54,29.90,29.57,6,3,19,0.26
2013-10-19,60.2,49.0,34.3,46.0,40.9,33.3,97,75,52,29.97,29.72,3,1,7,0.00
2013-10-20,51.5,45.0,34.2,47.2,38.4,32.5,95,78,55,30.03,29.68,6,2,11,0.03
2013-10-21,62.5,45.1,31.6,43.6,38.1,30.6,97,80,45,30.13,29.96,4,1,6,0.00
2013-10-22,52.7,43.5,34.3,48.5,40.2,31.9,98,88,77,29.96,29.72,5,1,9,0.08
2013-10-23,47.7,39.6,31.3,35.4,33.1,28.9,96,79,53,29.80,29.60,3,1,11,0.00
2013-10-24,44.3,38.2,33.1,35.3,31.8,29.0,89,78,58,29.90,29.68,5,2,10,0.02
2013-10-25,42.3,37.3,32.0,33.8,30.4,27.5,90,77,58,30.15,29.90,5,2,13,0.00
2013-10-26,46.1,41.6,37.1,34.8,31.6,27.3,88,69,50,30.15,29.83,4,2,12,0.00
2013-10-27,44.3,40.5,31.1,34.7,32.7,28.8,92,74,62,30.06,29.78,6,2,10,0.00
2013-10-28,50.4,37.0,27.9,37.3,30.4,24.8,94,79,48,30.37,30.06,6,1,18,0.00
2013-10-29,42.7,30.6,20.5,26.6,22.3,17.9,91,74,41,30.47,30.37,4,1,9,0.00
2013-10-30,46.0,35.2,27.8,39.3,31.1,23.1,95,85,75,30.39,30.21,4,0,7,0.02
2013-10-31,57.7,43.9,29.8,56.4,42.6,27.8,98,95,91,30.27,29.72,4,1,12,0.92
2013-11-1,63.0,58.5,49.5,59.9,53.2,42.5,96,83,59,29.72,29.37,6,3,21,1.41
2013-11-2,57.9,46.9,37.4,45.8,41.5,35.6,96,83,57,29.78,29.59,3,1,12,0.03
2013-11-3,41.5,34.6,26.4,39.1,25.4,16.0,91,70,45,30.45,29.78,3,1,7,0.00
2013-11-4,39.9,28.7,20.3,21.9,18.7,14.7,91,68,36,30.72,30.46,2,0,5,0.00
2013-11-5,47.5,33.1,21.9,34.2,26.9,19.3,91,79,57,30.73,30.51,4,1,7,0.00
2013-11-6,55.5,44.4,35.5,44.5,39.3,32.6,93,83,66,30.51,30.18,4,1,8,0.00
2013-11-7,55.3,43.2,34.5,51.6,38.0,22.0,94,82,59,29.84,29.70,4,2,16,0.26
2013-11-8,36.9,33.0,27.9,32.1,27.3,22.1,94,80,61,30.11,29.82,6,2,16,0.02
2013-11-9,37.6,32.8,25.2,31.2,26.1,21.5,88,77,63,30.24,29.98,4,1,8,0.00
2013-11-10,43.9,37.6,31.0,39.9,34.1,29.3,97,87,78,29.98,29.75,7,2,10,0.10
2013-11-11,42.3,38.1,33.3,32.7,29.1,26.3,79,70,61,30.08,29.89,7,3,13,0.00
2013-11-12,39.8,27.9,22.5,34.6,21.2,14.9,93,76,62,30.23,29.88,5,2,9,0.03
2013-11-13,30.3,24.1,17.3,21.3,15.3,12.2,81,69,52,30.34,30.16,5,2,10,0.00
2013-11-14,43.1,34.4,30.1,27.6,19.8,16.0,68,55,48,30.16,30.07,7,4,20,0.00
2013-11-15,55.0,35.8,24.2,27.0,23.2,17.3,89,66,23,30.23,30.12,2,0,9,0.00
2013-11-16,56.0,38.2,29.0,35.8,30.0,25.8,91,74,43,30.34,30.22,3,0,6,0.00
2013-11-17,53.6,39.8,28.7,53.3,38.3,26.4,99,94,87,30.33,29.79,3,0,6,0.05
2013-11-18,56.2,50.5,37.1,55.1,42.9,29.5,99,76,52,29.79,29.50,7,3,16,0.53
2013-11-19,36.9,31.2,24.9,30.2,22.9,16.5,87,71,60,30.34,29.67,7,3,19,0.00
2013-11-20,38.2,27.0,17.6,20.6,16.4,13.5,89,66,38,30.65,30.34,3,1,5,0.00
2013-11-21,43.7,33.5,14.7,32.3,23.7,11.6,89,69,32,30.68,30.39,3,0,7,0.00
2013-11-22,44.4,40.0,35.2,43.3,38.0,31.9,97,93,77,30.39,29.84,6,1,17,0.02
2013-11-23,42.1,31.1,21.6,39.9,24.0,11.7,92,75,59,29.96,29.80,7,4,14,0.00
2013-11-24,21.4,15.2,10.2,15.7,6.2,1.6,92,68,48,30.28,29.84,6,3,13,0.06
2013-11-25,27.7,18.4,9.5,18.0,9.0,0.1,77,66,51,30.43,30.26,5,1,7,0.00
2013-11-26,33.0,28.2,22.3,30.5,24.9,16.3,94,88,72,30.32,30.04,2,1,5,0.30
2013-11-27,41.0,33.9,29.9,40.5,32.4,27.1,98,94,86,30.03,29.34,6,2,12,1.55
2013-11-28,29.9,20.6,13.3,27.3,14.9,9.2,92,79,59,30.45,29.50,7,3,13,0.02
2013-11-29,25.4,17.2,9.1,16.0,11.8,5.9,91,80,55,30.78,30.45,5,1,9,0.00
2013-11-30,25.2,15.7,1.3,18.7,7.9,-1.9,90,72,51,30.84,30.45,3,0,7,0.00
2013-12-1,40.1,32.8,25.2,33.4,28.9,18.7,94,86,71,30.45,30.04,2,0,4,0.00
2013-12-2,40.0,34.1,29.7,35.3,31.7,27.9,94,91,83,30.04,29.90,1,0,2,0.00
2013-12-3,41.8,33.0,26.5,35.7,30.1,25.0,95,89,78,29.99,29.89,3,0,5,0.00
2013-12-4,42.0,31.7,25.3,33.7,27.6,23.6,94,85,65,30.22,29.98,3,0,4,0.00
2013-12-5,45.6,35.7,27.8,44.5,34.2,25.8,98,94,87,30.21,29.92,2,0,3,0.02
2013-12-6,48.0,37.4,31.6,47.5,35.2,29.8,98,92,82,30.15,29.88,4,1,13,0.14
2013-12-7,31.7,28.6,23.3,29.8,22.2,14.8,94,77,62,30.47,30.08,6,2,20,0.01
2013-12-8,26.8,24.3,21.0,17.7,15.1,12.5,80,68,58,30.58,30.47,3,1,6,0.00
2013-12-9,34.7,27.4,21.1,33.0,25.0,16.5,96,91,73,30.48,29.90,5,1,9,0.22
2013-12-10,32.7,26.5,19.2,29.0,21.5,13.1,93,81,73,29.98,29.79,6,3,18,0.04
2013-12-11,24.7,20.9,17.5,18.0,14.4,9.1,91,76,65,30.18,29.98,6,3,14,0.01
2013-12-12,19.3,14.0,6.5,15.9,6.6,2.0,88,72,54,30.30,30.05,6,1,10,0.00
2013-12-13,20.4,15.7,2.9,16.8,10.2,-0.8,88,79,68,30.41,29.98,4,2,10,0.00
2013-12-14,12.1,6.8,1.4,9.0,1.8,-1.8,88,80,61,30.61,30.21,1,0,3,0.31
2013-12-15,27.7,20.4,12.3,24.6,17.6,9.0,93,89,84,30.22,29.54,6,2,17,0.65
2013-12-16,22.0,15.5,6.1,19.1,9.3,1.3,90,76,66,30.20,29.73,6,3,12,0.00
2013-12-17,14.9,4.9,-9.8,11.6,1.5,-13.6,88,85,81,30.28,30.07,1,0,1,0.31
2013-12-18,25.0,18.8,5.1,21.2,15.5,2.0,90,87,82,30.08,29.98,4,1,11,0.00
2013-12-19,37.7,30.8,22.4,30.1,23.8,18.8,87,76,61,30.10,29.96,5,2,13,0.00
2013-12-20,42.6,36.4,32.2,37.6,33.2,29.1,96,88,72,30.11,29.91,4,0,5,0.07
2013-12-21,54.9,41.7,36.4,48.9,40.0,35.1,98,94,75,29.94,29.84,4,1,9,0.11
2013-12-22,60.4,52.1,37.9,57.5,50.0,37.1,99,93,80,29.91,29.69,5,2,12,0.20
2013-12-23,48.7,40.6,31.1,48.2,39.2,25.3,98,95,80,30.12,29.88,4,1,9,0.19
2013-12-24,31.0,24.6,14.5,25.6,17.0,7.3,85,73,54,30.25,30.07,6,2,18,0.00
2013-12-25,23.1,14.6,6.5,8.2,5.5,0.8,83,67,48,30.52,30.24,6,2,11,0.00
2013-12-26,27.5,22.7,16.7,24.9,18.2,7.3,92,83,66,30.47,30.11,5,2,12,0.07
2013-12-27,28.7,25.1,21.3,23.1,19.8,16.7,87,80,65,30.27,30.20,5,2,14,0.00
2013-12-28,40.5,31.2,19.0,30.4,26.0,17.1,94,81,63,30.22,30.01,7,2,12,0.00
2013-12-29,42.2,32.4,26.8,34.6,30.2,25.0,96,92,66,30.05,29.56,3,0,3,0.91
2013-12-30,34.1,23.2,8.2,33.0,19.5,4.4,97,86,77,30.17,29.60,7,3,14,0.00
2013-12-31,19.1,12.6,3.8,15.7,7.9,0.8,89,81,72,30.20,30.03,6,1,10,0.01
2014-1-1,18.4,13.6,10.8,11.6,8.6,4.8,89,80,71,30.39,30.19,4,1,9,0.00
2014-1-2,15.0,9.3,4.1,11.8,6.0,0.5,88,86,85,30.36,29.90,3,1,9,0.38